sensor_id;sensor_type;location;lat;lon;timestamp;temperature;humidity
32296;DHT22;18781;51.550;5.418;2023-04-01T00:01:05;13.30;76.10
32296;DHT22;18781;51.550;5.418;2023-04-01T00:03:31;13.30;76.20
32296;DHT22;18781;51.550;5.418;2023-04-01T00:05:59;13.30;76.20
32296;DHT22;18781;51.550;5.418;2023-04-01T00:08:25;13.30;76.20
32296;DHT22;18781;51.550;5.418;2023-04-01T00:10:51;13.30;76.30
32296;DHT22;18781;51.550;5.418;2023-04-01T00:13:17;13.30;76.30
32296;DHT22;18781;51.550;5.418;2023-04-01T00:15:43;13.30;76.40
32296;DHT22;18781;51.550;5.418;2023-04-01T00:18:09;13.30;76.30
32296;DHT22;18781;51.550;5.418;2023-04-01T00:20:35;13.30;76.40
32296;DHT22;18781;51.550;5.418;2023-04-01T00:23:00;13.30;76.30
32296;DHT22;18781;51.550;5.418;2023-04-01T00:25:26;13.30;76.40
32296;DHT22;18781;51.550;5.418;2023-04-01T00:27:52;13.30;76.40
32296;DHT22;18781;51.550;5.418;2023-04-01T00:30:18;13.30;76.30
32296;DHT22;18781;51.550;5.418;2023-04-01T00:32:43;13.30;76.40
32296;DHT22;18781;51.550;5.418;2023-04-01T00:35:10;13.30;76.40
32296;DHT22;18781;51.550;5.418;2023-04-01T00:37:38;13.30;76.40
32296;DHT22;18781;51.550;5.418;2023-04-01T00:40:05;13.30;76.40
32296;DHT22;18781;51.550;5.418;2023-04-01T00:42:31;13.30;76.40
32296;DHT22;18781;51.550;5.418;2023-04-01T00:44:57;13.30;76.40
32296;DHT22;18781;51.550;5.418;2023-04-01T00:47:24;13.30;76.40
32296;DHT22;18781;51.550;5.418;2023-04-01T00:49:51;13.30;76.40
32296;DHT22;18781;51.550;5.418;2023-04-01T00:52:21;13.30;76.40
32296;DHT22;18781;51.550;5.418;2023-04-01T00:54:51;13.30;76.60
32296;DHT22;18781;51.550;5.418;2023-04-01T00:57:23;13.30;76.40
32296;DHT22;18781;51.550;5.418;2023-04-01T00:59:52;13.30;76.50
32296;DHT22;18781;51.550;5.418;2023-04-01T01:02:20;13.30;76.50
32296;DHT22;18781;51.550;5.418;2023-04-01T01:04:46;13.30;76.50
32296;DHT22;18781;51.550;5.418;2023-04-01T01:10:09;13.30;76.60
32296;DHT22;18781;51.550;5.418;2023-04-01T01:15:45;13.30;76.70
32296;DHT22;18781;51.550;5.418;2023-04-01T01:18:40;13.20;76.60
32296;DHT22;18781;51.550;5.418;2023-04-01T01:26:24;13.20;76.60
32296;DHT22;18781;51.550;5.418;2023-04-01T01:32:12;13.20;76.80
32296;DHT22;18781;51.550;5.418;2023-04-01T01:37:29;13.20;76.90
32296;DHT22;18781;51.550;5.418;2023-04-01T01:40:00;13.20;76.90
32296;DHT22;18781;51.550;5.418;2023-04-01T01:42:28;13.20;76.80
32296;DHT22;18781;51.550;5.418;2023-04-01T01:44:56;13.20;76.80
32296;DHT22;18781;51.550;5.418;2023-04-01T01:47:25;13.20;76.90
32296;DHT22;18781;51.550;5.418;2023-04-01T01:49:52;13.20;76.90
32296;DHT22;18781;51.550;5.418;2023-04-01T01:52:18;13.20;76.80
32296;DHT22;18781;51.550;5.418;2023-04-01T01:54:52;13.20;76.80
32296;DHT22;18781;51.550;5.418;2023-04-01T01:57:24;13.20;76.90
32296;DHT22;18781;51.550;5.418;2023-04-01T01:59:55;13.20;76.80
32296;DHT22;18781;51.550;5.418;2023-04-01T02:02:22;13.20;76.70
32296;DHT22;18781;51.550;5.418;2023-04-01T02:04:49;13.30;76.70
32296;DHT22;18781;51.550;5.418;2023-04-01T02:07:23;13.20;76.50
32296;DHT22;18781;51.550;5.418;2023-04-01T02:09:51;13.20;76.60
32296;DHT22;18781;51.550;5.418;2023-04-01T02:12:18;13.20;76.50
32296;DHT22;18781;51.550;5.418;2023-04-01T02:15:06;13.20;76.60
32296;DHT22;18781;51.550;5.418;2023-04-01T02:17:34;13.20;76.60
32296;DHT22;18781;51.550;5.418;2023-04-01T02:20:11;13.20;76.50
32296;DHT22;18781;51.550;5.418;2023-04-01T02:22:41;13.20;76.50
32296;DHT22;18781;51.550;5.418;2023-04-01T02:25:13;13.20;76.50
32296;DHT22;18781;51.550;5.418;2023-04-01T02:27:40;13.20;76.60
32296;DHT22;18781;51.550;5.418;2023-04-01T02:30:08;13.10;76.60
32296;DHT22;18781;51.550;5.418;2023-04-01T02:32:35;13.10;76.60
32296;DHT22;18781;51.550;5.418;2023-04-01T02:35:05;13.10;76.70
32296;DHT22;18781;51.550;5.418;2023-04-01T02:37:32;13.10;76.70
32296;DHT22;18781;51.550;5.418;2023-04-01T02:40:02;13.10;76.70
32296;DHT22;18781;51.550;5.418;2023-04-01T02:42:28;13.10;76.70
32296;DHT22;18781;51.550;5.418;2023-04-01T02:44:53;13.10;76.70
32296;DHT22;18781;51.550;5.418;2023-04-01T02:47:19;13.10;76.70
32296;DHT22;18781;51.550;5.418;2023-04-01T02:49:45;13.10;76.70
32296;DHT22;18781;51.550;5.418;2023-04-01T02:52:10;13.10;76.70
32296;DHT22;18781;51.550;5.418;2023-04-01T02:54:36;13.10;76.70
32296;DHT22;18781;51.550;5.418;2023-04-01T02:57:01;13.10;76.80
32296;DHT22;18781;51.550;5.418;2023-04-01T02:59:27;13.10;76.80
32296;DHT22;18781;51.550;5.418;2023-04-01T03:01:52;13.10;76.80
32296;DHT22;18781;51.550;5.418;2023-04-01T03:04:18;13.10;76.80
32296;DHT22;18781;51.550;5.418;2023-04-01T03:06:44;13.10;76.80
32296;DHT22;18781;51.550;5.418;2023-04-01T03:09:09;13.10;76.80
32296;DHT22;18781;51.550;5.418;2023-04-01T03:11:36;13.10;76.80
32296;DHT22;18781;51.550;5.418;2023-04-01T03:14:01;13.10;76.90
32296;DHT22;18781;51.550;5.418;2023-04-01T03:16:27;13.10;76.80
32296;DHT22;18781;51.550;5.418;2023-04-01T03:18:52;13.10;76.80
32296;DHT22;18781;51.550;5.418;2023-04-01T03:21:24;13.10;76.80
32296;DHT22;18781;51.550;5.418;2023-04-01T03:23:50;13.00;76.80
32296;DHT22;18781;51.550;5.418;2023-04-01T03:26:16;13.00;76.80
32296;DHT22;18781;51.550;5.418;2023-04-01T03:28:41;13.00;76.80
32296;DHT22;18781;51.550;5.418;2023-04-01T03:31:07;13.00;76.90
32296;DHT22;18781;51.550;5.418;2023-04-01T03:33:33;13.00;76.90
32296;DHT22;18781;51.550;5.418;2023-04-01T03:35:59;13.00;76.90
32296;DHT22;18781;51.550;5.418;2023-04-01T03:38:24;13.00;77.00
32296;DHT22;18781;51.550;5.418;2023-04-01T03:40:50;13.00;77.00
32296;DHT22;18781;51.550;5.418;2023-04-01T03:43:16;13.00;77.00
32296;DHT22;18781;51.550;5.418;2023-04-01T03:45:49;13.00;77.00
32296;DHT22;18781;51.550;5.418;2023-04-01T03:48:16;13.00;77.10
32296;DHT22;18781;51.550;5.418;2023-04-01T03:50:42;13.00;77.10
32296;DHT22;18781;51.550;5.418;2023-04-01T03:53:08;13.00;77.10
32296;DHT22;18781;51.550;5.418;2023-04-01T03:55:36;13.00;77.10
32296;DHT22;18781;51.550;5.418;2023-04-01T03:58:02;13.00;77.10
32296;DHT22;18781;51.550;5.418;2023-04-01T04:00:29;13.00;77.10
32296;DHT22;18781;51.550;5.418;2023-04-01T04:02:55;13.00;77.10
32296;DHT22;18781;51.550;5.418;2023-04-01T04:05:22;13.00;77.10
32296;DHT22;18781;51.550;5.418;2023-04-01T04:07:48;13.00;77.10
32296;DHT22;18781;51.550;5.418;2023-04-01T04:10:13;12.90;77.10
32296;DHT22;18781;51.550;5.418;2023-04-01T04:12:39;13.00;77.10
32296;DHT22;18781;51.550;5.418;2023-04-01T04:15:06;13.00;77.10
32296;DHT22;18781;51.550;5.418;2023-04-01T04:17:32;13.00;76.90
32296;DHT22;18781;51.550;5.418;2023-04-01T04:19:57;13.00;76.90
32296;DHT22;18781;51.550;5.418;2023-04-01T04:22:23;12.90;76.90
32296;DHT22;18781;51.550;5.418;2023-04-01T04:24:48;12.90;76.90
32296;DHT22;18781;51.550;5.418;2023-04-01T04:27:14;12.90;76.80
32296;DHT22;18781;51.550;5.418;2023-04-01T04:29:40;12.90;76.80
32296;DHT22;18781;51.550;5.418;2023-04-01T04:32:06;12.90;76.80
32296;DHT22;18781;51.550;5.418;2023-04-01T04:34:32;12.90;76.70
32296;DHT22;18781;51.550;5.418;2023-04-01T04:36:57;12.90;76.80
32296;DHT22;18781;51.550;5.418;2023-04-01T04:39:23;12.90;76.80
32296;DHT22;18781;51.550;5.418;2023-04-01T04:41:49;12.90;76.80
32296;DHT22;18781;51.550;5.418;2023-04-01T04:44:14;12.80;76.80
32296;DHT22;18781;51.550;5.418;2023-04-01T04:46:40;12.80;76.80
32296;DHT22;18781;51.550;5.418;2023-04-01T04:49:06;12.80;76.80
32296;DHT22;18781;51.550;5.418;2023-04-01T04:51:32;12.80;76.70
32296;DHT22;18781;51.550;5.418;2023-04-01T04:54:03;12.90;76.80
32296;DHT22;18781;51.550;5.418;2023-04-01T04:56:29;12.80;76.70
32296;DHT22;18781;51.550;5.418;2023-04-01T04:58:56;12.80;76.80
32296;DHT22;18781;51.550;5.418;2023-04-01T05:01:22;12.80;76.80
32296;DHT22;18781;51.550;5.418;2023-04-01T05:03:48;12.80;76.90
32296;DHT22;18781;51.550;5.418;2023-04-01T05:06:14;12.80;76.90
32296;DHT22;18781;51.550;5.418;2023-04-01T05:08:41;12.80;76.90
32296;DHT22;18781;51.550;5.418;2023-04-01T05:11:18;12.80;76.90
32296;DHT22;18781;51.550;5.418;2023-04-01T05:13:45;12.70;77.00
32296;DHT22;18781;51.550;5.418;2023-04-01T05:16:13;12.70;76.90
32296;DHT22;18781;51.550;5.418;2023-04-01T05:18:39;12.70;77.00
32296;DHT22;18781;51.550;5.418;2023-04-01T05:21:06;12.70;77.00
32296;DHT22;18781;51.550;5.418;2023-04-01T05:23:32;12.70;76.90
32296;DHT22;18781;51.550;5.418;2023-04-01T05:25:58;12.70;76.90
32296;DHT22;18781;51.550;5.418;2023-04-01T05:28:27;12.70;76.90
32296;DHT22;18781;51.550;5.418;2023-04-01T05:30:53;12.70;76.90
32296;DHT22;18781;51.550;5.418;2023-04-01T05:33:18;12.70;76.90
32296;DHT22;18781;51.550;5.418;2023-04-01T05:35:44;12.70;77.00
32296;DHT22;18781;51.550;5.418;2023-04-01T05:38:10;12.70;77.00
32296;DHT22;18781;51.550;5.418;2023-04-01T05:40:36;12.70;77.10
32296;DHT22;18781;51.550;5.418;2023-04-01T05:43:01;12.70;77.10
32296;DHT22;18781;51.550;5.418;2023-04-01T05:45:27;12.70;77.10
32296;DHT22;18781;51.550;5.418;2023-04-01T05:47:53;12.70;77.20
32296;DHT22;18781;51.550;5.418;2023-04-01T05:50:19;12.70;77.20
32296;DHT22;18781;51.550;5.418;2023-04-01T05:52:45;12.70;77.20
32296;DHT22;18781;51.550;5.418;2023-04-01T05:55:11;12.70;77.20
32296;DHT22;18781;51.550;5.418;2023-04-01T05:57:37;12.70;77.20
32296;DHT22;18781;51.550;5.418;2023-04-01T06:00:04;12.70;77.20
32296;DHT22;18781;51.550;5.418;2023-04-01T06:02:30;12.70;77.20
32296;DHT22;18781;51.550;5.418;2023-04-01T06:05:18;12.70;77.30
32296;DHT22;18781;51.550;5.418;2023-04-01T06:07:44;12.70;77.50
32296;DHT22;18781;51.550;5.418;2023-04-01T06:10:17;12.70;77.40
32296;DHT22;18781;51.550;5.418;2023-04-01T06:12:45;12.70;77.30
32296;DHT22;18781;51.550;5.418;2023-04-01T06:20:25;12.80;77.40
32296;DHT22;18781;51.550;5.418;2023-04-01T06:26:23;12.80;77.70
32296;DHT22;18781;51.550;5.418;2023-04-01T06:31:52;12.80;77.70
32296;DHT22;18781;51.550;5.418;2023-04-01T06:34:48;12.80;77.80
32296;DHT22;18781;51.550;5.418;2023-04-01T06:37:40;12.80;77.90
32296;DHT22;18781;51.550;5.418;2023-04-01T06:40:47;12.80;77.80
32296;DHT22;18781;51.550;5.418;2023-04-01T06:54:38;12.80;77.90
32296;DHT22;18781;51.550;5.418;2023-04-01T06:59:47;12.80;78.00
32296;DHT22;18781;51.550;5.418;2023-04-01T07:02:28;12.90;78.00
32296;DHT22;18781;51.550;5.418;2023-04-01T07:04:58;12.90;78.10
32296;DHT22;18781;51.550;5.418;2023-04-01T07:07:41;12.90;78.00
32296;DHT22;18781;51.550;5.418;2023-04-01T07:11:01;12.90;78.00
32296;DHT22;18781;51.550;5.418;2023-04-01T07:13:05;12.90;78.10
32296;DHT22;18781;51.550;5.418;2023-04-01T07:15:40;13.00;78.10
32296;DHT22;18781;51.550;5.418;2023-04-01T07:18:22;13.00;78.10
32296;DHT22;18781;51.550;5.418;2023-04-01T07:20:50;13.00;78.10
32296;DHT22;18781;51.550;5.418;2023-04-01T07:23:29;13.00;77.90
32296;DHT22;18781;51.550;5.418;2023-04-01T07:26:04;13.00;78.10
32296;DHT22;18781;51.550;5.418;2023-04-01T07:28:32;13.00;77.90
32296;DHT22;18781;51.550;5.418;2023-04-01T07:34:09;13.00;77.90
32296;DHT22;18781;51.550;5.418;2023-04-01T07:36:43;13.10;78.00
32296;DHT22;18781;51.550;5.418;2023-04-01T07:39:21;13.10;78.00
32296;DHT22;18781;51.550;5.418;2023-04-01T07:44:52;13.10;78.00
32296;DHT22;18781;51.550;5.418;2023-04-01T07:50:42;13.10;78.10
32296;DHT22;18781;51.550;5.418;2023-04-01T07:53:16;13.10;78.00
32296;DHT22;18781;51.550;5.418;2023-04-01T07:58:48;13.20;78.00
32296;DHT22;18781;51.550;5.418;2023-04-01T08:07:12;13.30;78.10
32296;DHT22;18781;51.550;5.418;2023-04-01T08:10:02;13.30;78.10
32296;DHT22;18781;51.550;5.418;2023-04-01T08:15:27;13.30;78.10
32296;DHT22;18781;51.550;5.418;2023-04-01T08:18:05;13.30;78.00
32296;DHT22;18781;51.550;5.418;2023-04-01T08:20:56;13.30;77.70
32296;DHT22;18781;51.550;5.418;2023-04-01T08:23:27;13.40;77.60
32296;DHT22;18781;51.550;5.418;2023-04-01T08:26:05;13.40;77.60
32296;DHT22;18781;51.550;5.418;2023-04-01T08:28:39;13.40;77.60
32296;DHT22;18781;51.550;5.418;2023-04-01T08:31:13;13.40;77.60
32296;DHT22;18781;51.550;5.418;2023-04-01T08:33:40;13.40;77.60
32296;DHT22;18781;51.550;5.418;2023-04-01T08:36:15;13.40;77.60
32296;DHT22;18781;51.550;5.418;2023-04-01T08:38:54;13.40;77.80
32296;DHT22;18781;51.550;5.418;2023-04-01T08:46:53;13.50;77.50
32296;DHT22;18781;51.550;5.418;2023-04-01T09:11:44;13.70;77.20
32296;DHT22;18781;51.550;5.418;2023-04-01T09:14:30;13.70;77.10
32296;DHT22;18781;51.550;5.418;2023-04-01T09:17:14;13.70;77.00
32296;DHT22;18781;51.550;5.418;2023-04-01T09:20:08;13.70;77.00
32296;DHT22;18781;51.550;5.418;2023-04-01T09:23:00;13.80;77.20
32296;DHT22;18781;51.550;5.418;2023-04-01T09:25:50;13.80;76.90
32296;DHT22;18781;51.550;5.418;2023-04-01T09:37:20;13.90;77.10
32296;DHT22;18781;51.550;5.418;2023-04-01T09:40:16;14.00;77.00
32296;DHT22;18781;51.550;5.418;2023-04-01T09:45:49;14.00;76.80
32296;DHT22;18781;51.550;5.418;2023-04-01T09:48:40;14.00;76.80
32296;DHT22;18781;51.550;5.418;2023-04-01T09:54:20;14.10;76.90
32296;DHT22;18781;51.550;5.418;2023-04-01T09:59:46;14.20;77.00
32296;DHT22;18781;51.550;5.418;2023-04-01T10:05:41;14.30;76.80
32296;DHT22;18781;51.550;5.418;2023-04-01T10:16:56;14.40;76.10
32296;DHT22;18781;51.550;5.418;2023-04-01T10:41:50;14.50;75.50
32296;DHT22;18781;51.550;5.418;2023-04-01T10:47:15;14.50;75.60
32296;DHT22;18781;51.550;5.418;2023-04-01T10:55:54;14.50;75.50
32296;DHT22;18781;51.550;5.418;2023-04-01T11:13:39;14.60;75.40
32296;DHT22;18781;51.550;5.418;2023-04-01T11:18:49;14.60;75.40
32296;DHT22;18781;51.550;5.418;2023-04-01T11:21:30;14.60;75.50
32296;DHT22;18781;51.550;5.418;2023-04-01T11:24:35;14.60;75.40
32296;DHT22;18781;51.550;5.418;2023-04-01T11:36:04;14.60;75.10
32296;DHT22;18781;51.550;5.418;2023-04-01T11:39:05;14.60;75.00
32296;DHT22;18781;51.550;5.418;2023-04-01T11:44:26;14.60;75.00
32296;DHT22;18781;51.550;5.418;2023-04-01T12:03:41;14.60;75.70
32296;DHT22;18781;51.550;5.418;2023-04-01T12:06:14;14.60;75.60
32296;DHT22;18781;51.550;5.418;2023-04-01T12:14:19;14.60;75.50
32296;DHT22;18781;51.550;5.418;2023-04-01T12:16:50;14.60;75.60
32296;DHT22;18781;51.550;5.418;2023-04-01T12:22:08;14.60;75.70
32296;DHT22;18781;51.550;5.418;2023-04-01T12:24:47;14.60;75.80
32296;DHT22;18781;51.550;5.418;2023-04-01T12:27:29;14.60;75.70
32296;DHT22;18781;51.550;5.418;2023-04-01T12:33:28;14.60;75.70
32296;DHT22;18781;51.550;5.418;2023-04-01T12:39:14;14.60;75.70
32296;DHT22;18781;51.550;5.418;2023-04-01T12:50:02;14.70;76.60
32296;DHT22;18781;51.550;5.418;2023-04-01T12:52:54;14.70;75.80
32296;DHT22;18781;51.550;5.418;2023-04-01T12:55:36;14.70;75.80
32296;DHT22;18781;51.550;5.418;2023-04-01T13:01:13;14.70;75.60
32296;DHT22;18781;51.550;5.418;2023-04-01T13:04:04;14.70;75.50
32296;DHT22;18781;51.550;5.418;2023-04-01T13:20:02;14.70;75.30
32296;DHT22;18781;51.550;5.418;2023-04-01T13:23:01;14.70;75.40
32296;DHT22;18781;51.550;5.418;2023-04-01T13:25:42;14.70;75.60
32296;DHT22;18781;51.550;5.418;2023-04-01T13:28:23;14.60;75.50
32296;DHT22;18781;51.550;5.418;2023-04-01T13:31:41;14.60;75.30
32296;DHT22;18781;51.550;5.418;2023-04-01T13:34:39;14.60;75.40
32296;DHT22;18781;51.550;5.418;2023-04-01T13:39:51;14.60;75.00
32296;DHT22;18781;51.550;5.418;2023-04-01T13:42:26;14.60;75.20
32296;DHT22;18781;51.550;5.418;2023-04-01T13:56:02;14.50;75.30
32296;DHT22;18781;51.550;5.418;2023-04-01T13:58:55;14.50;75.30
32296;DHT22;18781;51.550;5.418;2023-04-01T14:01:32;14.50;75.40
32296;DHT22;18781;51.550;5.418;2023-04-01T14:04:19;14.40;75.40
32296;DHT22;18781;51.550;5.418;2023-04-01T14:09:29;14.40;75.50
32296;DHT22;18781;51.550;5.418;2023-04-01T14:12:13;14.40;75.50
32296;DHT22;18781;51.550;5.418;2023-04-01T14:15:01;14.40;75.70
32296;DHT22;18781;51.550;5.418;2023-04-01T14:17:56;14.40;75.60
32296;DHT22;18781;51.550;5.418;2023-04-01T14:23:37;14.40;75.60
32296;DHT22;18781;51.550;5.418;2023-04-01T14:29:43;14.40;75.80
32296;DHT22;18781;51.550;5.418;2023-04-01T14:35:33;14.40;76.00
32296;DHT22;18781;51.550;5.418;2023-04-01T14:43:59;14.40;76.00
32296;DHT22;18781;51.550;5.418;2023-04-01T14:49:36;14.40;76.10
32296;DHT22;18781;51.550;5.418;2023-04-01T14:54:40;14.40;76.10
32296;DHT22;18781;51.550;5.418;2023-04-01T14:57:28;14.40;76.60
32296;DHT22;18781;51.550;5.418;2023-04-01T15:08:15;14.40;75.80
32296;DHT22;18781;51.550;5.418;2023-04-01T15:20:07;14.40;75.90
32296;DHT22;18781;51.550;5.418;2023-04-01T15:23:00;14.40;75.80
32296;DHT22;18781;51.550;5.418;2023-04-01T15:25:51;14.40;76.00
32296;DHT22;18781;51.550;5.418;2023-04-01T15:31:50;14.40;76.10
32296;DHT22;18781;51.550;5.418;2023-04-01T15:37:31;14.40;76.10
32296;DHT22;18781;51.550;5.418;2023-04-01T15:40:32;14.40;76.20
32296;DHT22;18781;51.550;5.418;2023-04-01T15:59:47;14.40;75.90
32296;DHT22;18781;51.550;5.418;2023-04-01T16:05:26;14.40;75.80
32296;DHT22;18781;51.550;5.418;2023-04-01T16:13:24;14.40;76.00
32296;DHT22;18781;51.550;5.418;2023-04-01T16:16:14;14.40;76.00
32296;DHT22;18781;51.550;5.418;2023-04-01T16:18:49;14.40;75.90
32296;DHT22;18781;51.550;5.418;2023-04-01T16:21:50;14.40;75.90
32296;DHT22;18781;51.550;5.418;2023-04-01T16:27:36;14.40;75.90
32296;DHT22;18781;51.550;5.418;2023-04-01T16:33:21;14.30;75.90
32296;DHT22;18781;51.550;5.418;2023-04-01T16:35:56;14.30;75.90
32296;DHT22;18781;51.550;5.418;2023-04-01T16:38:32;14.30;75.90
32296;DHT22;18781;51.550;5.418;2023-04-01T16:41:01;14.30;75.90
32296;DHT22;18781;51.550;5.418;2023-04-01T16:43:38;14.30;76.10
32296;DHT22;18781;51.550;5.418;2023-04-01T16:51:48;14.30;75.90
32296;DHT22;18781;51.550;5.418;2023-04-01T16:57:18;14.20;75.90
32296;DHT22;18781;51.550;5.418;2023-04-01T17:02:28;14.20;75.90
32296;DHT22;18781;51.550;5.418;2023-04-01T17:13:29;14.10;76.60
32296;DHT22;18781;51.550;5.418;2023-04-01T17:18:51;14.10;76.70
32296;DHT22;18781;51.550;5.418;2023-04-01T17:27:26;14.10;76.90
32296;DHT22;18781;51.550;5.418;2023-04-01T17:30:26;14.10;77.10
32296;DHT22;18781;51.550;5.418;2023-04-01T17:38:21;14.10;77.10
32296;DHT22;18781;51.550;5.418;2023-04-01T17:41:03;14.10;77.10
32296;DHT22;18781;51.550;5.418;2023-04-01T17:43:48;14.10;76.90
32296;DHT22;18781;51.550;5.418;2023-04-01T17:49:33;14.10;76.90
32296;DHT22;18781;51.550;5.418;2023-04-01T17:52:15;14.10;77.00
32296;DHT22;18781;51.550;5.418;2023-04-01T18:02:31;14.10;77.40
32296;DHT22;18781;51.550;5.418;2023-04-01T18:08:22;14.10;77.20
32296;DHT22;18781;51.550;5.418;2023-04-01T18:13:55;14.10;76.90
32296;DHT22;18781;51.550;5.418;2023-04-01T18:19:30;14.10;76.80
32296;DHT22;18781;51.550;5.418;2023-04-01T18:22:39;14.10;76.90
32296;DHT22;18781;51.550;5.418;2023-04-01T18:25:22;14.00;76.90
32296;DHT22;18781;51.550;5.418;2023-04-01T18:36:19;14.00;76.50
32296;DHT22;18781;51.550;5.418;2023-04-01T18:39:00;14.00;76.50
32296;DHT22;18781;51.550;5.418;2023-04-01T18:41:32;14.00;76.40
32296;DHT22;18781;51.550;5.418;2023-04-01T18:44:38;14.00;75.90
32296;DHT22;18781;51.550;5.418;2023-04-01T18:47:47;14.00;76.00
32296;DHT22;18781;51.550;5.418;2023-04-01T18:52:42;13.90;76.10
32296;DHT22;18781;51.550;5.418;2023-04-01T18:55:35;13.90;76.10
32296;DHT22;18781;51.550;5.418;2023-04-01T18:58:18;13.90;76.00
32296;DHT22;18781;51.550;5.418;2023-04-01T19:05:52;13.80;76.10
32296;DHT22;18781;51.550;5.418;2023-04-01T19:08:31;13.80;76.30
32296;DHT22;18781;51.550;5.418;2023-04-01T19:13:56;13.70;76.10
32296;DHT22;18781;51.550;5.418;2023-04-01T19:17:08;13.70;76.00
32296;DHT22;18781;51.550;5.418;2023-04-01T19:24:58;13.70;75.60
32296;DHT22;18781;51.550;5.418;2023-04-01T19:27:41;13.60;75.50
32296;DHT22;18781;51.550;5.418;2023-04-01T19:41:31;13.40;75.50
32296;DHT22;18781;51.550;5.418;2023-04-01T19:44:17;13.40;75.40
32296;DHT22;18781;51.550;5.418;2023-04-01T19:47:24;13.30;76.00
32296;DHT22;18781;51.550;5.418;2023-04-01T19:50:21;13.30;75.50
32296;DHT22;18781;51.550;5.418;2023-04-01T19:52:52;13.20;75.50
32296;DHT22;18781;51.550;5.418;2023-04-01T19:55:41;13.20;75.40
32296;DHT22;18781;51.550;5.418;2023-04-01T20:00:59;13.10;75.40
32296;DHT22;18781;51.550;5.418;2023-04-01T20:06:20;13.10;75.80
32296;DHT22;18781;51.550;5.418;2023-04-01T20:08:54;13.10;75.70
32296;DHT22;18781;51.550;5.418;2023-04-01T20:11:46;13.10;75.50
32296;DHT22;18781;51.550;5.418;2023-04-01T20:14:36;13.10;75.40
32296;DHT22;18781;51.550;5.418;2023-04-01T20:20:01;13.00;74.90
32296;DHT22;18781;51.550;5.418;2023-04-01T20:22:34;13.00;75.20
32296;DHT22;18781;51.550;5.418;2023-04-01T20:25:24;12.90;74.90
32296;DHT22;18781;51.550;5.418;2023-04-01T20:36:05;12.80;75.20
32296;DHT22;18781;51.550;5.418;2023-04-01T20:53:19;12.60;75.30
32296;DHT22;18781;51.550;5.418;2023-04-01T21:01:55;12.50;75.30
32296;DHT22;18781;51.550;5.418;2023-04-01T21:04:40;12.50;75.40
32296;DHT22;18781;51.550;5.418;2023-04-01T21:08:01;12.40;75.50
32296;DHT22;18781;51.550;5.418;2023-04-01T21:10:06;12.40;75.50
32296;DHT22;18781;51.550;5.418;2023-04-01T21:18:33;12.30;75.80
32296;DHT22;18781;51.550;5.418;2023-04-01T21:21:57;12.30;76.10
32296;DHT22;18781;51.550;5.418;2023-04-01T21:24:33;12.30;75.80
32296;DHT22;18781;51.550;5.418;2023-04-01T21:35:21;12.30;74.80
32296;DHT22;18781;51.550;5.418;2023-04-01T21:40:44;12.20;74.90
32296;DHT22;18781;51.550;5.418;2023-04-01T21:48:50;12.00;75.00
32296;DHT22;18781;51.550;5.418;2023-04-01T21:51:33;12.00;75.10
32296;DHT22;18781;51.550;5.418;2023-04-01T22:05:44;11.80;75.50
32296;DHT22;18781;51.550;5.418;2023-04-01T22:10:53;11.80;75.70
32296;DHT22;18781;51.550;5.418;2023-04-01T22:13:38;11.80;75.80
32296;DHT22;18781;51.550;5.418;2023-04-01T22:16:29;11.80;75.70
32296;DHT22;18781;51.550;5.418;2023-04-01T22:21:59;11.70;75.30
32296;DHT22;18781;51.550;5.418;2023-04-01T22:24:33;11.70;75.40
32296;DHT22;18781;51.550;5.418;2023-04-01T22:27:07;11.70;75.10
32296;DHT22;18781;51.550;5.418;2023-04-01T22:32:34;11.60;74.70
32296;DHT22;18781;51.550;5.418;2023-04-01T22:40:22;11.50;74.80
32296;DHT22;18781;51.550;5.418;2023-04-01T22:43:06;11.50;74.90
32296;DHT22;18781;51.550;5.418;2023-04-01T22:45:52;11.40;75.00
32296;DHT22;18781;51.550;5.418;2023-04-01T22:48:49;11.30;75.00
32296;DHT22;18781;51.550;5.418;2023-04-01T22:57:03;11.30;75.30
32296;DHT22;18781;51.550;5.418;2023-04-01T22:59:37;11.30;74.90
32296;DHT22;18781;51.550;5.418;2023-04-01T23:02:22;11.30;74.90
32296;DHT22;18781;51.550;5.418;2023-04-01T23:04:54;11.30;74.60
32296;DHT22;18781;51.550;5.418;2023-04-01T23:10:03;11.20;74.30
32296;DHT22;18781;51.550;5.418;2023-04-01T23:12:32;11.20;74.40
32296;DHT22;18781;51.550;5.418;2023-04-01T23:15:00;11.20;74.40
32296;DHT22;18781;51.550;5.418;2023-04-01T23:17:39;11.10;74.60
32296;DHT22;18781;51.550;5.418;2023-04-01T23:22:49;11.00;74.20
32296;DHT22;18781;51.550;5.418;2023-04-01T23:25:25;11.00;74.20
32296;DHT22;18781;51.550;5.418;2023-04-01T23:28:19;10.90;74.40
32296;DHT22;18781;51.550;5.418;2023-04-01T23:30:48;10.90;74.60
32296;DHT22;18781;51.550;5.418;2023-04-01T23:38:13;10.90;74.70
32296;DHT22;18781;51.550;5.418;2023-04-01T23:40:39;10.90;74.50
32296;DHT22;18781;51.550;5.418;2023-04-01T23:43:13;10.90;74.40
32296;DHT22;18781;51.550;5.418;2023-04-01T23:45:41;10.90;74.40
32296;DHT22;18781;51.550;5.418;2023-04-01T23:48:11;10.80;74.20
32296;DHT22;18781;51.550;5.418;2023-04-01T23:50:40;10.80;74.30
32296;DHT22;18781;51.550;5.418;2023-04-01T23:53:23;10.80;74.60
32296;DHT22;18781;51.550;5.418;2023-04-01T23:55:51;10.80;74.70
32296;DHT22;18781;51.550;5.418;2023-04-01T23:58:38;10.80;74.80
